sensor_id;sensor_type;location;lat;lon;timestamp;temperature;humidity
20946;DHT22;10632;51.276;7.116;2022-10-31T00:01:52;14.50;99.90
20946;DHT22;10632;51.276;7.116;2022-10-31T00:04:19;14.60;99.90
20946;DHT22;10632;51.276;7.116;2022-10-31T00:06:46;14.50;99.90
20946;DHT22;10632;51.276;7.116;2022-10-31T00:09:13;14.50;99.90
20946;DHT22;10632;51.276;7.116;2022-10-31T00:11:41;14.50;99.90
20946;DHT22;10632;51.276;7.116;2022-10-31T00:14:08;14.50;99.90
20946;DHT22;10632;51.276;7.116;2022-10-31T00:16:35;14.40;99.90
20946;DHT22;10632;51.276;7.116;2022-10-31T00:19:05;14.50;99.90
20946;DHT22;10632;51.276;7.116;2022-10-31T00:21:32;14.40;99.90
20946;DHT22;10632;51.276;7.116;2022-10-31T00:24:00;14.40;99.90
20946;DHT22;10632;51.276;7.116;2022-10-31T00:26:27;14.30;99.90
20946;DHT22;10632;51.276;7.116;2022-10-31T00:28:56;14.30;99.90
20946;DHT22;10632;51.276;7.116;2022-10-31T00:31:23;14.30;99.90
20946;DHT22;10632;51.276;7.116;2022-10-31T00:33:50;14.20;99.90
20946;DHT22;10632;51.276;7.116;2022-10-31T00:36:18;14.20;99.90
20946;DHT22;10632;51.276;7.116;2022-10-31T00:38:46;14.10;99.90
20946;DHT22;10632;51.276;7.116;2022-10-31T00:41:16;14.10;99.90
20946;DHT22;10632;51.276;7.116;2022-10-31T00:43:44;14.10;99.90
20946;DHT22;10632;51.276;7.116;2022-10-31T00:46:12;14.00;99.90
20946;DHT22;10632;51.276;7.116;2022-10-31T00:48:40;14.00;99.90
20946;DHT22;10632;51.276;7.116;2022-10-31T00:51:07;14.00;99.90
20946;DHT22;10632;51.276;7.116;2022-10-31T00:53:34;14.00;99.90
20946;DHT22;10632;51.276;7.116;2022-10-31T00:56:01;14.00;99.90
20946;DHT22;10632;51.276;7.116;2022-10-31T00:58:28;14.00;99.90
20946;DHT22;10632;51.276;7.116;2022-10-31T01:00:55;14.00;99.90
20946;DHT22;10632;51.276;7.116;2022-10-31T01:03:28;14.00;99.90
20946;DHT22;10632;51.276;7.116;2022-10-31T01:05:57;14.00;99.90
20946;DHT22;10632;51.276;7.116;2022-10-31T01:08:24;14.00;99.90
20946;DHT22;10632;51.276;7.116;2022-10-31T01:11:01;14.10;99.90
20946;DHT22;10632;51.276;7.116;2022-10-31T01:13:31;14.10;99.90
20946;DHT22;10632;51.276;7.116;2022-10-31T01:15:59;14.10;99.90
20946;DHT22;10632;51.276;7.116;2022-10-31T01:18:28;14.10;99.90
20946;DHT22;10632;51.276;7.116;2022-10-31T01:21:03;14.20;99.90
20946;DHT22;10632;51.276;7.116;2022-10-31T01:23:31;14.20;99.90
20946;DHT22;10632;51.276;7.116;2022-10-31T01:26:09;14.20;99.90
20946;DHT22;10632;51.276;7.116;2022-10-31T01:28:38;14.20;99.90
20946;DHT22;10632;51.276;7.116;2022-10-31T01:31:07;14.30;99.90
20946;DHT22;10632;51.276;7.116;2022-10-31T01:33:37;14.30;99.90
20946;DHT22;10632;51.276;7.116;2022-10-31T01:36:12;14.40;99.90
20946;DHT22;10632;51.276;7.116;2022-10-31T01:38:40;14.40;99.90
20946;DHT22;10632;51.276;7.116;2022-10-31T01:41:07;14.40;99.90
20946;DHT22;10632;51.276;7.116;2022-10-31T01:43:46;14.40;99.90
20946;DHT22;10632;51.276;7.116;2022-10-31T01:46:14;14.40;99.90
20946;DHT22;10632;51.276;7.116;2022-10-31T01:48:44;14.40;99.90
20946;DHT22;10632;51.276;7.116;2022-10-31T01:51:12;14.40;99.90
20946;DHT22;10632;51.276;7.116;2022-10-31T01:53:40;14.30;99.90
20946;DHT22;10632;51.276;7.116;2022-10-31T01:56:08;14.30;99.90
20946;DHT22;10632;51.276;7.116;2022-10-31T01:58:35;14.20;99.90
20946;DHT22;10632;51.276;7.116;2022-10-31T02:01:03;14.20;99.90
20946;DHT22;10632;51.276;7.116;2022-10-31T02:03:31;14.10;99.90
20946;DHT22;10632;51.276;7.116;2022-10-31T02:05:59;14.10;99.90
20946;DHT22;10632;51.276;7.116;2022-10-31T02:08:29;14.10;99.90
20946;DHT22;10632;51.276;7.116;2022-10-31T02:10:57;14.00;99.90
20946;DHT22;10632;51.276;7.116;2022-10-31T02:13:25;14.00;99.90
20946;DHT22;10632;51.276;7.116;2022-10-31T02:15:54;14.00;99.90
20946;DHT22;10632;51.276;7.116;2022-10-31T02:18:23;14.00;99.90
20946;DHT22;10632;51.276;7.116;2022-10-31T02:21:01;13.90;99.90
20946;DHT22;10632;51.276;7.116;2022-10-31T02:26:54;13.80;99.90
20946;DHT22;10632;51.276;7.116;2022-10-31T02:32:38;13.60;99.90
20946;DHT22;10632;51.276;7.116;2022-10-31T02:35:13;13.60;99.90
20946;DHT22;10632;51.276;7.116;2022-10-31T02:37:47;13.60;99.90
20946;DHT22;10632;51.276;7.116;2022-10-31T02:40:20;13.50;99.90
20946;DHT22;10632;51.276;7.116;2022-10-31T02:42:57;13.50;99.90
20946;DHT22;10632;51.276;7.116;2022-10-31T02:45:29;13.50;99.90
20946;DHT22;10632;51.276;7.116;2022-10-31T02:48:02;13.50;99.90
20946;DHT22;10632;51.276;7.116;2022-10-31T02:50:32;13.50;99.90
20946;DHT22;10632;51.276;7.116;2022-10-31T02:53:01;13.50;99.90
20946;DHT22;10632;51.276;7.116;2022-10-31T02:55:49;13.40;99.90
20946;DHT22;10632;51.276;7.116;2022-10-31T02:58:19;13.40;99.90
20946;DHT22;10632;51.276;7.116;2022-10-31T03:01:05;13.40;99.90
20946;DHT22;10632;51.276;7.116;2022-10-31T03:03:37;13.40;99.90
20946;DHT22;10632;51.276;7.116;2022-10-31T03:06:10;13.30;99.90
20946;DHT22;10632;51.276;7.116;2022-10-31T03:08:45;13.20;99.90
20946;DHT22;10632;51.276;7.116;2022-10-31T03:11:17;13.20;99.90
20946;DHT22;10632;51.276;7.116;2022-10-31T03:13:47;13.10;99.90
20946;DHT22;10632;51.276;7.116;2022-10-31T03:16:21;13.00;99.90
20946;DHT22;10632;51.276;7.116;2022-10-31T03:18:55;13.00;99.90
20946;DHT22;10632;51.276;7.116;2022-10-31T03:21:26;13.00;99.90
20946;DHT22;10632;51.276;7.116;2022-10-31T03:23:58;12.90;99.90
20946;DHT22;10632;51.276;7.116;2022-10-31T03:26:26;12.90;99.90
20946;DHT22;10632;51.276;7.116;2022-10-31T03:28:59;12.90;99.90
20946;DHT22;10632;51.276;7.116;2022-10-31T03:31:34;12.90;99.90
20946;DHT22;10632;51.276;7.116;2022-10-31T03:34:04;12.90;99.90
20946;DHT22;10632;51.276;7.116;2022-10-31T03:36:34;12.90;99.90
20946;DHT22;10632;51.276;7.116;2022-10-31T03:39:04;12.90;99.90
20946;DHT22;10632;51.276;7.116;2022-10-31T03:41:35;12.90;99.90
20946;DHT22;10632;51.276;7.116;2022-10-31T03:44:07;12.90;99.90
20946;DHT22;10632;51.276;7.116;2022-10-31T03:46:35;12.90;99.90
20946;DHT22;10632;51.276;7.116;2022-10-31T03:49:03;12.90;99.90
20946;DHT22;10632;51.276;7.116;2022-10-31T03:51:35;12.90;99.90
20946;DHT22;10632;51.276;7.116;2022-10-31T03:54:08;12.90;99.90
20946;DHT22;10632;51.276;7.116;2022-10-31T03:56:41;12.90;99.90
20946;DHT22;10632;51.276;7.116;2022-10-31T03:59:13;12.90;99.90
20946;DHT22;10632;51.276;7.116;2022-10-31T04:01:46;12.90;99.90
20946;DHT22;10632;51.276;7.116;2022-10-31T04:04:15;12.90;99.90
20946;DHT22;10632;51.276;7.116;2022-10-31T04:06:44;12.90;99.90
20946;DHT22;10632;51.276;7.116;2022-10-31T04:09:14;12.90;99.90
20946;DHT22;10632;51.276;7.116;2022-10-31T04:11:45;12.90;99.90
20946;DHT22;10632;51.276;7.116;2022-10-31T04:14:12;13.00;99.90
20946;DHT22;10632;51.276;7.116;2022-10-31T04:16:44;13.00;99.90
20946;DHT22;10632;51.276;7.116;2022-10-31T04:19:12;13.00;99.90
20946;DHT22;10632;51.276;7.116;2022-10-31T04:21:40;12.90;99.90
20946;DHT22;10632;51.276;7.116;2022-10-31T04:24:09;12.90;99.90
20946;DHT22;10632;51.276;7.116;2022-10-31T04:26:35;12.90;99.90
20946;DHT22;10632;51.276;7.116;2022-10-31T04:29:03;12.80;99.90
20946;DHT22;10632;51.276;7.116;2022-10-31T04:31:30;12.80;99.90
20946;DHT22;10632;51.276;7.116;2022-10-31T04:33:56;12.80;99.90
20946;DHT22;10632;51.276;7.116;2022-10-31T04:36:23;12.70;99.90
20946;DHT22;10632;51.276;7.116;2022-10-31T04:38:52;12.70;99.90
20946;DHT22;10632;51.276;7.116;2022-10-31T04:41:18;12.70;99.90
20946;DHT22;10632;51.276;7.116;2022-10-31T04:43:45;12.70;99.90
20946;DHT22;10632;51.276;7.116;2022-10-31T04:46:12;12.60;99.90
20946;DHT22;10632;51.276;7.116;2022-10-31T04:48:39;12.60;99.90
20946;DHT22;10632;51.276;7.116;2022-10-31T04:51:06;12.60;99.90
20946;DHT22;10632;51.276;7.116;2022-10-31T04:53:33;12.60;99.90
20946;DHT22;10632;51.276;7.116;2022-10-31T04:56:01;12.60;99.90
20946;DHT22;10632;51.276;7.116;2022-10-31T04:58:28;12.60;99.90
20946;DHT22;10632;51.276;7.116;2022-10-31T05:00:56;12.60;99.90
20946;DHT22;10632;51.276;7.116;2022-10-31T05:03:23;12.50;99.90
20946;DHT22;10632;51.276;7.116;2022-10-31T05:05:50;12.50;99.90
20946;DHT22;10632;51.276;7.116;2022-10-31T05:08:16;12.50;99.90
20946;DHT22;10632;51.276;7.116;2022-10-31T05:10:43;12.50;99.90
20946;DHT22;10632;51.276;7.116;2022-10-31T05:13:12;12.50;99.90
20946;DHT22;10632;51.276;7.116;2022-10-31T05:15:40;12.50;99.90
20946;DHT22;10632;51.276;7.116;2022-10-31T05:18:10;12.50;99.90
20946;DHT22;10632;51.276;7.116;2022-10-31T05:20:39;12.50;99.90
20946;DHT22;10632;51.276;7.116;2022-10-31T05:23:06;12.50;99.90
20946;DHT22;10632;51.276;7.116;2022-10-31T05:25:33;12.50;99.90
20946;DHT22;10632;51.276;7.116;2022-10-31T05:28:00;12.50;99.90
20946;DHT22;10632;51.276;7.116;2022-10-31T05:30:30;12.50;99.90
20946;DHT22;10632;51.276;7.116;2022-10-31T05:32:57;12.50;99.90
20946;DHT22;10632;51.276;7.116;2022-10-31T05:35:25;12.50;99.90
20946;DHT22;10632;51.276;7.116;2022-10-31T05:37:53;12.50;99.90
20946;DHT22;10632;51.276;7.116;2022-10-31T05:40:21;12.50;99.90
20946;DHT22;10632;51.276;7.116;2022-10-31T05:42:51;12.50;99.90
20946;DHT22;10632;51.276;7.116;2022-10-31T05:45:19;12.60;99.90
20946;DHT22;10632;51.276;7.116;2022-10-31T05:47:52;12.50;99.90
20946;DHT22;10632;51.276;7.116;2022-10-31T05:50:19;12.60;99.90
20946;DHT22;10632;51.276;7.116;2022-10-31T05:52:46;12.50;99.90
20946;DHT22;10632;51.276;7.116;2022-10-31T05:55:13;12.60;99.90
20946;DHT22;10632;51.276;7.116;2022-10-31T05:57:40;12.60;99.90
20946;DHT22;10632;51.276;7.116;2022-10-31T06:00:08;12.60;99.90
20946;DHT22;10632;51.276;7.116;2022-10-31T06:02:35;12.60;99.90
20946;DHT22;10632;51.276;7.116;2022-10-31T06:05:04;12.60;99.90
20946;DHT22;10632;51.276;7.116;2022-10-31T06:07:35;12.70;99.90
20946;DHT22;10632;51.276;7.116;2022-10-31T06:10:04;12.70;99.90
20946;DHT22;10632;51.276;7.116;2022-10-31T06:12:31;12.70;99.90
20946;DHT22;10632;51.276;7.116;2022-10-31T06:15:03;12.70;99.90
20946;DHT22;10632;51.276;7.116;2022-10-31T06:17:31;12.60;99.90
20946;DHT22;10632;51.276;7.116;2022-10-31T06:19:58;12.70;99.90
20946;DHT22;10632;51.276;7.116;2022-10-31T06:22:26;12.70;99.90
20946;DHT22;10632;51.276;7.116;2022-10-31T06:24:53;12.70;99.90
20946;DHT22;10632;51.276;7.116;2022-10-31T06:27:20;12.70;99.90
20946;DHT22;10632;51.276;7.116;2022-10-31T06:29:47;12.70;99.90
20946;DHT22;10632;51.276;7.116;2022-10-31T06:32:14;12.70;99.90
20946;DHT22;10632;51.276;7.116;2022-10-31T06:34:42;12.60;99.90
20946;DHT22;10632;51.276;7.116;2022-10-31T06:37:10;12.60;99.90
20946;DHT22;10632;51.276;7.116;2022-10-31T06:39:38;12.60;99.90
20946;DHT22;10632;51.276;7.116;2022-10-31T06:42:06;12.60;99.90
20946;DHT22;10632;51.276;7.116;2022-10-31T06:44:32;12.50;99.90
20946;DHT22;10632;51.276;7.116;2022-10-31T06:46:59;12.50;99.90
20946;DHT22;10632;51.276;7.116;2022-10-31T06:49:26;12.50;99.90
20946;DHT22;10632;51.276;7.116;2022-10-31T06:51:53;12.50;99.90
20946;DHT22;10632;51.276;7.116;2022-10-31T06:54:20;12.50;99.90
20946;DHT22;10632;51.276;7.116;2022-10-31T06:56:49;12.50;99.90
20946;DHT22;10632;51.276;7.116;2022-10-31T06:59:16;12.40;99.90
20946;DHT22;10632;51.276;7.116;2022-10-31T07:01:43;12.50;99.90
20946;DHT22;10632;51.276;7.116;2022-10-31T07:04:10;12.50;99.90
20946;DHT22;10632;51.276;7.116;2022-10-31T07:06:37;12.50;99.90
20946;DHT22;10632;51.276;7.116;2022-10-31T07:09:04;12.50;99.90
20946;DHT22;10632;51.276;7.116;2022-10-31T07:11:31;12.60;99.90
20946;DHT22;10632;51.276;7.116;2022-10-31T07:14:00;12.60;99.90
20946;DHT22;10632;51.276;7.116;2022-10-31T07:16:27;12.60;99.90
20946;DHT22;10632;51.276;7.116;2022-10-31T07:18:54;12.60;99.90
20946;DHT22;10632;51.276;7.116;2022-10-31T07:21:21;12.60;99.90
20946;DHT22;10632;51.276;7.116;2022-10-31T07:23:48;12.60;99.90
20946;DHT22;10632;51.276;7.116;2022-10-31T07:26:15;12.70;99.90
20946;DHT22;10632;51.276;7.116;2022-10-31T07:28:42;12.70;99.90
20946;DHT22;10632;51.276;7.116;2022-10-31T07:31:10;12.70;99.90
20946;DHT22;10632;51.276;7.116;2022-10-31T07:33:37;12.70;99.90
20946;DHT22;10632;51.276;7.116;2022-10-31T07:36:04;12.80;99.90
20946;DHT22;10632;51.276;7.116;2022-10-31T07:38:31;12.80;99.90
20946;DHT22;10632;51.276;7.116;2022-10-31T07:40:58;12.80;99.90
20946;DHT22;10632;51.276;7.116;2022-10-31T07:43:25;12.80;99.90
20946;DHT22;10632;51.276;7.116;2022-10-31T07:45:53;12.90;99.90
20946;DHT22;10632;51.276;7.116;2022-10-31T07:48:21;12.90;99.90
20946;DHT22;10632;51.276;7.116;2022-10-31T07:50:48;12.90;99.90
20946;DHT22;10632;51.276;7.116;2022-10-31T07:53:15;12.90;99.90
20946;DHT22;10632;51.276;7.116;2022-10-31T07:55:43;13.00;99.90
20946;DHT22;10632;51.276;7.116;2022-10-31T07:58:11;13.00;99.90
20946;DHT22;10632;51.276;7.116;2022-10-31T08:00:41;13.00;99.90
20946;DHT22;10632;51.276;7.116;2022-10-31T08:03:09;13.00;99.90
20946;DHT22;10632;51.276;7.116;2022-10-31T08:05:38;13.10;99.90
20946;DHT22;10632;51.276;7.116;2022-10-31T08:08:06;13.10;99.90
20946;DHT22;10632;51.276;7.116;2022-10-31T08:10:34;13.20;99.90
20946;DHT22;10632;51.276;7.116;2022-10-31T08:13:03;13.30;99.90
20946;DHT22;10632;51.276;7.116;2022-10-31T08:15:30;13.30;99.90
20946;DHT22;10632;51.276;7.116;2022-10-31T08:17:58;13.40;99.90
20946;DHT22;10632;51.276;7.116;2022-10-31T08:20:25;13.40;99.90
20946;DHT22;10632;51.276;7.116;2022-10-31T08:22:57;13.50;99.90
20946;DHT22;10632;51.276;7.116;2022-10-31T08:25:26;13.50;99.90
20946;DHT22;10632;51.276;7.116;2022-10-31T08:27:54;13.50;99.90
20946;DHT22;10632;51.276;7.116;2022-10-31T08:30:22;13.60;99.90
20946;DHT22;10632;51.276;7.116;2022-10-31T08:32:57;13.60;99.90
20946;DHT22;10632;51.276;7.116;2022-10-31T08:35:24;13.70;99.90
20946;DHT22;10632;51.276;7.116;2022-10-31T08:37:52;13.70;99.90
20946;DHT22;10632;51.276;7.116;2022-10-31T08:40:21;13.80;99.90
20946;DHT22;10632;51.276;7.116;2022-10-31T08:42:55;13.80;99.90
20946;DHT22;10632;51.276;7.116;2022-10-31T08:45:22;13.90;99.90
20946;DHT22;10632;51.276;7.116;2022-10-31T08:47:49;14.00;99.90
20946;DHT22;10632;51.276;7.116;2022-10-31T08:50:16;14.00;99.90
20946;DHT22;10632;51.276;7.116;2022-10-31T08:52:43;14.00;99.90
20946;DHT22;10632;51.276;7.116;2022-10-31T08:55:10;14.10;99.90
20946;DHT22;10632;51.276;7.116;2022-10-31T08:57:38;14.20;99.90
20946;DHT22;10632;51.276;7.116;2022-10-31T09:00:06;14.20;99.90
20946;DHT22;10632;51.276;7.116;2022-10-31T09:02:33;14.30;99.90
20946;DHT22;10632;51.276;7.116;2022-10-31T09:05:00;14.40;99.90
20946;DHT22;10632;51.276;7.116;2022-10-31T09:07:27;14.40;99.90
20946;DHT22;10632;51.276;7.116;2022-10-31T09:09:54;14.40;99.90
20946;DHT22;10632;51.276;7.116;2022-10-31T09:12:22;14.50;99.90
20946;DHT22;10632;51.276;7.116;2022-10-31T09:14:51;14.60;99.90
20946;DHT22;10632;51.276;7.116;2022-10-31T09:17:18;14.60;99.90
20946;DHT22;10632;51.276;7.116;2022-10-31T09:19:44;14.70;99.90
20946;DHT22;10632;51.276;7.116;2022-10-31T09:22:11;14.70;99.90
20946;DHT22;10632;51.276;7.116;2022-10-31T09:24:38;14.80;99.90
20946;DHT22;10632;51.276;7.116;2022-10-31T09:27:05;14.80;99.90
20946;DHT22;10632;51.276;7.116;2022-10-31T09:29:33;14.90;99.90
20946;DHT22;10632;51.276;7.116;2022-10-31T09:32:02;14.90;99.90
20946;DHT22;10632;51.276;7.116;2022-10-31T09:34:29;15.00;99.90
20946;DHT22;10632;51.276;7.116;2022-10-31T09:36:56;15.00;99.90
20946;DHT22;10632;51.276;7.116;2022-10-31T09:39:22;15.10;99.90
20946;DHT22;10632;51.276;7.116;2022-10-31T09:42:05;15.10;99.90
20946;DHT22;10632;51.276;7.116;2022-10-31T09:44:45;15.20;99.90
20946;DHT22;10632;51.276;7.116;2022-10-31T09:47:21;15.20;99.90
20946;DHT22;10632;51.276;7.116;2022-10-31T09:50:03;15.30;99.90
20946;DHT22;10632;51.276;7.116;2022-10-31T09:52:34;15.30;99.90
20946;DHT22;10632;51.276;7.116;2022-10-31T09:55:08;15.40;99.90
20946;DHT22;10632;51.276;7.116;2022-10-31T09:57:41;15.40;99.90
20946;DHT22;10632;51.276;7.116;2022-10-31T10:00:15;15.50;99.90
20946;DHT22;10632;51.276;7.116;2022-10-31T10:02:47;15.60;99.90
20946;DHT22;10632;51.276;7.116;2022-10-31T10:05:21;15.70;99.90
20946;DHT22;10632;51.276;7.116;2022-10-31T10:07:59;15.90;99.90
20946;DHT22;10632;51.276;7.116;2022-10-31T10:10:33;16.00;99.90
20946;DHT22;10632;51.276;7.116;2022-10-31T10:13:26;16.20;99.90
20946;DHT22;10632;51.276;7.116;2022-10-31T10:16:09;16.40;99.90
20946;DHT22;10632;51.276;7.116;2022-10-31T10:18:50;16.50;99.90
20946;DHT22;10632;51.276;7.116;2022-10-31T10:21:26;16.60;99.90
20946;DHT22;10632;51.276;7.116;2022-10-31T10:24:03;16.70;99.90
20946;DHT22;10632;51.276;7.116;2022-10-31T10:26:36;16.80;99.90
20946;DHT22;10632;51.276;7.116;2022-10-31T10:29:23;16.70;99.90
20946;DHT22;10632;51.276;7.116;2022-10-31T10:31:52;16.80;99.90
20946;DHT22;10632;51.276;7.116;2022-10-31T10:34:26;16.80;99.90
20946;DHT22;10632;51.276;7.116;2022-10-31T10:37:03;16.90;99.90
20946;DHT22;10632;51.276;7.116;2022-10-31T10:39:39;16.90;99.90
20946;DHT22;10632;51.276;7.116;2022-10-31T10:42:12;16.90;99.90
20946;DHT22;10632;51.276;7.116;2022-10-31T10:44:57;17.00;99.90
20946;DHT22;10632;51.276;7.116;2022-10-31T10:47:43;17.00;99.90
20946;DHT22;10632;51.276;7.116;2022-10-31T10:50:15;17.10;99.90
20946;DHT22;10632;51.276;7.116;2022-10-31T10:52:53;17.10;99.90
20946;DHT22;10632;51.276;7.116;2022-10-31T10:55:29;17.10;99.90
20946;DHT22;10632;51.276;7.116;2022-10-31T10:58:02;17.10;99.90
20946;DHT22;10632;51.276;7.116;2022-10-31T11:00:31;17.10;99.90
20946;DHT22;10632;51.276;7.116;2022-10-31T11:03:00;17.10;99.90
20946;DHT22;10632;51.276;7.116;2022-10-31T11:05:33;17.10;99.90
20946;DHT22;10632;51.276;7.116;2022-10-31T11:08:02;17.10;99.90
20946;DHT22;10632;51.276;7.116;2022-10-31T11:10:29;17.10;99.90
20946;DHT22;10632;51.276;7.116;2022-10-31T11:13:21;17.10;99.90
20946;DHT22;10632;51.276;7.116;2022-10-31T11:15:54;17.10;99.90
20946;DHT22;10632;51.276;7.116;2022-10-31T11:18:25;17.10;99.90
20946;DHT22;10632;51.276;7.116;2022-10-31T11:20:54;17.20;99.90
20946;DHT22;10632;51.276;7.116;2022-10-31T11:23:24;17.20;99.90
20946;DHT22;10632;51.276;7.116;2022-10-31T11:25:54;17.30;99.90
20946;DHT22;10632;51.276;7.116;2022-10-31T11:28:22;17.40;99.90
20946;DHT22;10632;51.276;7.116;2022-10-31T11:30:51;17.60;99.90
20946;DHT22;10632;51.276;7.116;2022-10-31T11:33:26;17.70;99.90
20946;DHT22;10632;51.276;7.116;2022-10-31T11:35:55;17.90;99.90
20946;DHT22;10632;51.276;7.116;2022-10-31T11:38:27;18.00;99.90
20946;DHT22;10632;51.276;7.116;2022-10-31T11:40:59;18.10;99.90
20946;DHT22;10632;51.276;7.116;2022-10-31T11:43:27;18.20;99.90
20946;DHT22;10632;51.276;7.116;2022-10-31T11:45:54;18.30;99.90
20946;DHT22;10632;51.276;7.116;2022-10-31T11:48:23;18.40;99.90
20946;DHT22;10632;51.276;7.116;2022-10-31T11:50:52;18.40;99.90
20946;DHT22;10632;51.276;7.116;2022-10-31T11:53:25;18.50;99.90
20946;DHT22;10632;51.276;7.116;2022-10-31T11:56:03;18.50;99.90
20946;DHT22;10632;51.276;7.116;2022-10-31T11:58:31;18.60;99.90
20946;DHT22;10632;51.276;7.116;2022-10-31T12:00:58;18.70;99.90
20946;DHT22;10632;51.276;7.116;2022-10-31T12:03:44;18.70;99.90
20946;DHT22;10632;51.276;7.116;2022-10-31T12:06:18;18.80;99.90
20946;DHT22;10632;51.276;7.116;2022-10-31T12:08:48;18.80;99.90
20946;DHT22;10632;51.276;7.116;2022-10-31T12:11:28;18.90;99.90
20946;DHT22;10632;51.276;7.116;2022-10-31T12:14:14;19.00;99.90
20946;DHT22;10632;51.276;7.116;2022-10-31T12:16:50;19.20;99.90
20946;DHT22;10632;51.276;7.116;2022-10-31T12:19:30;19.50;99.90
20946;DHT22;10632;51.276;7.116;2022-10-31T12:22:05;19.70;99.90
20946;DHT22;10632;51.276;7.116;2022-10-31T12:27:51;20.20;99.90
20946;DHT22;10632;51.276;7.116;2022-10-31T12:30:23;20.40;99.90
20946;DHT22;10632;51.276;7.116;2022-10-31T12:33:11;20.60;99.90
20946;DHT22;10632;51.276;7.116;2022-10-31T12:35:47;20.60;99.90
20946;DHT22;10632;51.276;7.116;2022-10-31T12:38:41;20.40;99.90
20946;DHT22;10632;51.276;7.116;2022-10-31T12:41:33;20.30;99.90
20946;DHT22;10632;51.276;7.116;2022-10-31T12:44:12;20.50;99.90
20946;DHT22;10632;51.276;7.116;2022-10-31T12:46:59;20.40;99.90
20946;DHT22;10632;51.276;7.116;2022-10-31T12:49:42;20.30;99.90
20946;DHT22;10632;51.276;7.116;2022-10-31T12:55:29;20.60;99.90
20946;DHT22;10632;51.276;7.116;2022-10-31T12:58:02;20.80;99.90
20946;DHT22;10632;51.276;7.116;2022-10-31T13:00:32;20.80;99.90
20946;DHT22;10632;51.276;7.116;2022-10-31T13:03:09;20.80;99.90
20946;DHT22;10632;51.276;7.116;2022-10-31T13:05:43;20.90;99.90
20946;DHT22;10632;51.276;7.116;2022-10-31T13:08:14;20.90;99.90
20946;DHT22;10632;51.276;7.116;2022-10-31T13:10:44;20.90;99.90
20946;DHT22;10632;51.276;7.116;2022-10-31T13:13:17;20.90;99.90
20946;DHT22;10632;51.276;7.116;2022-10-31T13:15:49;20.80;99.90
20946;DHT22;10632;51.276;7.116;2022-10-31T13:18:25;20.60;99.90
20946;DHT22;10632;51.276;7.116;2022-10-31T13:20:55;20.50;99.90
20946;DHT22;10632;51.276;7.116;2022-10-31T13:23:28;20.30;99.90
20946;DHT22;10632;51.276;7.116;2022-10-31T13:25:58;20.20;99.90
20946;DHT22;10632;51.276;7.116;2022-10-31T13:28:37;20.10;99.90
20946;DHT22;10632;51.276;7.116;2022-10-31T13:31:08;20.00;99.90
20946;DHT22;10632;51.276;7.116;2022-10-31T13:33:40;19.90;99.90
20946;DHT22;10632;51.276;7.116;2022-10-31T13:36:18;19.80;99.90
20946;DHT22;10632;51.276;7.116;2022-10-31T13:38:50;19.60;99.90
20946;DHT22;10632;51.276;7.116;2022-10-31T13:41:28;19.50;99.90
20946;DHT22;10632;51.276;7.116;2022-10-31T13:44:01;19.40;99.90
20946;DHT22;10632;51.276;7.116;2022-10-31T13:46:37;19.30;99.90
20946;DHT22;10632;51.276;7.116;2022-10-31T13:49:26;19.20;99.90
20946;DHT22;10632;51.276;7.116;2022-10-31T13:52:13;19.10;99.90
20946;DHT22;10632;51.276;7.116;2022-10-31T13:54:42;19.10;99.90
20946;DHT22;10632;51.276;7.116;2022-10-31T13:57:16;19.00;99.90
20946;DHT22;10632;51.276;7.116;2022-10-31T13:59:50;19.00;99.90
20946;DHT22;10632;51.276;7.116;2022-10-31T14:02:22;19.00;99.90
20946;DHT22;10632;51.276;7.116;2022-10-31T14:04:56;19.10;99.90
20946;DHT22;10632;51.276;7.116;2022-10-31T14:07:26;19.10;99.90
20946;DHT22;10632;51.276;7.116;2022-10-31T14:09:56;19.10;99.90
20946;DHT22;10632;51.276;7.116;2022-10-31T14:12:27;19.20;99.90
20946;DHT22;10632;51.276;7.116;2022-10-31T14:15:02;19.20;99.90
20946;DHT22;10632;51.276;7.116;2022-10-31T14:17:36;19.20;99.90
20946;DHT22;10632;51.276;7.116;2022-10-31T14:20:32;19.20;99.90
20946;DHT22;10632;51.276;7.116;2022-10-31T14:23:11;19.10;99.90
20946;DHT22;10632;51.276;7.116;2022-10-31T14:25:38;19.00;99.90
20946;DHT22;10632;51.276;7.116;2022-10-31T14:28:19;19.00;99.90
20946;DHT22;10632;51.276;7.116;2022-10-31T14:30:53;19.00;99.90
20946;DHT22;10632;51.276;7.116;2022-10-31T14:33:20;18.90;99.90
20946;DHT22;10632;51.276;7.116;2022-10-31T14:35:55;18.90;99.90
20946;DHT22;10632;51.276;7.116;2022-10-31T14:38:43;18.80;99.90
20946;DHT22;10632;51.276;7.116;2022-10-31T14:41:34;18.80;99.90
20946;DHT22;10632;51.276;7.116;2022-10-31T14:44:16;18.80;99.90
20946;DHT22;10632;51.276;7.116;2022-10-31T14:46:56;18.70;99.90
20946;DHT22;10632;51.276;7.116;2022-10-31T14:49:46;18.70;99.90
20946;DHT22;10632;51.276;7.116;2022-10-31T14:52:17;18.70;99.90
20946;DHT22;10632;51.276;7.116;2022-10-31T14:54:51;18.60;99.90
20946;DHT22;10632;51.276;7.116;2022-10-31T14:57:23;18.60;99.90
20946;DHT22;10632;51.276;7.116;2022-10-31T14:59:57;18.60;99.90
20946;DHT22;10632;51.276;7.116;2022-10-31T15:02:29;18.50;99.90
20946;DHT22;10632;51.276;7.116;2022-10-31T15:05:00;18.50;99.90
20946;DHT22;10632;51.276;7.116;2022-10-31T15:07:28;18.50;99.90
20946;DHT22;10632;51.276;7.116;2022-10-31T15:09:56;18.50;99.90
20946;DHT22;10632;51.276;7.116;2022-10-31T15:12:26;18.50;99.90
20946;DHT22;10632;51.276;7.116;2022-10-31T15:14:54;18.40;99.90
20946;DHT22;10632;51.276;7.116;2022-10-31T15:17:22;18.40;99.90
20946;DHT22;10632;51.276;7.116;2022-10-31T15:19:52;18.40;99.90
20946;DHT22;10632;51.276;7.116;2022-10-31T15:22:23;18.40;99.90
20946;DHT22;10632;51.276;7.116;2022-10-31T15:24:50;18.40;99.90
20946;DHT22;10632;51.276;7.116;2022-10-31T15:27:22;18.40;99.90
20946;DHT22;10632;51.276;7.116;2022-10-31T15:29:51;18.40;99.90
20946;DHT22;10632;51.276;7.116;2022-10-31T15:32:20;18.40;99.90
20946;DHT22;10632;51.276;7.116;2022-10-31T15:34:50;18.40;99.90
20946;DHT22;10632;51.276;7.116;2022-10-31T15:37:19;18.40;99.90
20946;DHT22;10632;51.276;7.116;2022-10-31T15:39:48;18.40;99.90
20946;DHT22;10632;51.276;7.116;2022-10-31T15:42:22;18.40;99.90
20946;DHT22;10632;51.276;7.116;2022-10-31T15:44:53;18.40;99.90
20946;DHT22;10632;51.276;7.116;2022-10-31T15:47:23;18.30;99.90
20946;DHT22;10632;51.276;7.116;2022-10-31T15:49:53;18.40;99.90
20946;DHT22;10632;51.276;7.116;2022-10-31T15:52:28;18.30;99.90
20946;DHT22;10632;51.276;7.116;2022-10-31T15:54:59;18.30;99.90
20946;DHT22;10632;51.276;7.116;2022-10-31T15:57:27;18.30;99.90
20946;DHT22;10632;51.276;7.116;2022-10-31T15:59:54;18.30;99.90
20946;DHT22;10632;51.276;7.116;2022-10-31T16:02:33;18.30;99.90
20946;DHT22;10632;51.276;7.116;2022-10-31T16:05:15;18.20;99.90
20946;DHT22;10632;51.276;7.116;2022-10-31T16:07:48;18.20;99.90